sensor_id;sensor_type;location;lat;lon;timestamp;P1;durP1;ratioP1;P2;durP2;ratioP2
58472;SDS011;44775;51.564;5.460;2024-01-16T00:02:10;8.50;;;7.63;;
58472;SDS011;44775;51.564;5.460;2024-01-16T00:04:38;10.52;;;7.20;;
58472;SDS011;44775;51.564;5.460;2024-01-16T00:07:04;7.82;;;6.22;;
58472;SDS011;44775;51.564;5.460;2024-01-16T00:09:32;9.77;;;7.30;;
58472;SDS011;44775;51.564;5.460;2024-01-16T00:11:58;12.13;;;7.70;;
58472;SDS011;44775;51.564;5.460;2024-01-16T00:14:23;9.18;;;7.55;;
58472;SDS011;44775;51.564;5.460;2024-01-16T00:16:48;11.45;;;7.70;;
58472;SDS011;44775;51.564;5.460;2024-01-16T00:19:14;11.27;;;8.65;;
58472;SDS011;44775;51.564;5.460;2024-01-16T00:21:43;10.38;;;8.25;;
58472;SDS011;44775;51.564;5.460;2024-01-16T00:24:12;12.55;;;8.20;;
58472;SDS011;44775;51.564;5.460;2024-01-16T00:26:38;10.00;;;8.23;;
58472;SDS011;44775;51.564;5.460;2024-01-16T00:29:03;13.50;;;8.07;;
58472;SDS011;44775;51.564;5.460;2024-01-16T00:31:29;11.65;;;8.38;;
58472;SDS011;44775;51.564;5.460;2024-01-16T00:33:54;12.35;;;8.50;;
58472;SDS011;44775;51.564;5.460;2024-01-16T00:36:19;14.68;;;9.27;;
58472;SDS011;44775;51.564;5.460;2024-01-16T00:38:45;16.10;;;8.88;;
58472;SDS011;44775;51.564;5.460;2024-01-16T00:41:12;13.07;;;9.35;;
58472;SDS011;44775;51.564;5.460;2024-01-16T00:43:39;12.80;;;9.40;;
58472;SDS011;44775;51.564;5.460;2024-01-16T00:46:04;12.43;;;8.50;;
58472;SDS011;44775;51.564;5.460;2024-01-16T00:48:30;11.05;;;7.80;;
58472;SDS011;44775;51.564;5.460;2024-01-16T00:50:55;11.50;;;7.78;;
58472;SDS011;44775;51.564;5.460;2024-01-16T00:53:20;12.40;;;7.80;;
58472;SDS011;44775;51.564;5.460;2024-01-16T00:55:46;10.77;;;7.95;;
58472;SDS011;44775;51.564;5.460;2024-01-16T00:58:11;11.10;;;7.43;;
58472;SDS011;44775;51.564;5.460;2024-01-16T01:00:36;10.13;;;7.30;;
58472;SDS011;44775;51.564;5.460;2024-01-16T01:03:02;12.13;;;7.15;;
58472;SDS011;44775;51.564;5.460;2024-01-16T01:05:31;11.18;;;7.18;;
58472;SDS011;44775;51.564;5.460;2024-01-16T01:07:57;11.05;;;7.20;;
58472;SDS011;44775;51.564;5.460;2024-01-16T01:10:23;11.90;;;7.45;;
58472;SDS011;44775;51.564;5.460;2024-01-16T01:12:48;12.50;;;7.80;;
58472;SDS011;44775;51.564;5.460;2024-01-16T01:15:14;15.75;;;8.45;;
58472;SDS011;44775;51.564;5.460;2024-01-16T01:17:40;15.30;;;8.60;;
58472;SDS011;44775;51.564;5.460;2024-01-16T01:20:07;13.77;;;9.00;;
58472;SDS011;44775;51.564;5.460;2024-01-16T01:22:33;12.13;;;8.05;;
58472;SDS011;44775;51.564;5.460;2024-01-16T01:24:58;13.30;;;8.60;;
58472;SDS011;44775;51.564;5.460;2024-01-16T01:27:24;12.85;;;8.07;;
58472;SDS011;44775;51.564;5.460;2024-01-16T01:29:49;15.82;;;8.57;;
58472;SDS011;44775;51.564;5.460;2024-01-16T01:32:14;11.40;;;7.97;;
58472;SDS011;44775;51.564;5.460;2024-01-16T01:34:42;14.77;;;8.18;;
58472;SDS011;44775;51.564;5.460;2024-01-16T01:37:08;10.30;;;7.43;;
58472;SDS011;44775;51.564;5.460;2024-01-16T01:39:33;17.80;;;8.38;;
58472;SDS011;44775;51.564;5.460;2024-01-16T01:41:58;11.07;;;7.00;;
58472;SDS011;44775;51.564;5.460;2024-01-16T01:44:24;15.43;;;7.43;;
58472;SDS011;44775;51.564;5.460;2024-01-16T01:46:50;11.65;;;6.28;;
58472;SDS011;44775;51.564;5.460;2024-01-16T01:49:15;14.77;;;7.20;;
58472;SDS011;44775;51.564;5.460;2024-01-16T01:51:41;13.52;;;7.30;;
58472;SDS011;44775;51.564;5.460;2024-01-16T01:54:07;12.98;;;7.57;;
58472;SDS011;44775;51.564;5.460;2024-01-16T01:56:34;10.18;;;7.20;;
58472;SDS011;44775;51.564;5.460;2024-01-16T01:58:59;12.18;;;7.20;;
58472;SDS011;44775;51.564;5.460;2024-01-16T02:01:27;12.23;;;7.10;;
58472;SDS011;44775;51.564;5.460;2024-01-16T02:03:54;10.80;;;6.70;;
58472;SDS011;44775;51.564;5.460;2024-01-16T02:06:21;12.07;;;6.30;;
58472;SDS011;44775;51.564;5.460;2024-01-16T02:08:46;10.88;;;6.35;;
58472;SDS011;44775;51.564;5.460;2024-01-16T02:11:12;8.32;;;5.47;;
58472;SDS011;44775;51.564;5.460;2024-01-16T02:13:37;8.80;;;5.40;;
58472;SDS011;44775;51.564;5.460;2024-01-16T02:16:02;15.60;;;6.30;;
58472;SDS011;44775;51.564;5.460;2024-01-16T02:18:28;9.40;;;5.30;;
58472;SDS011;44775;51.564;5.460;2024-01-16T02:20:58;10.45;;;5.50;;
58472;SDS011;44775;51.564;5.460;2024-01-16T02:23:28;9.05;;;5.13;;
58472;SDS011;44775;51.564;5.460;2024-01-16T02:25:54;10.55;;;4.95;;
58472;SDS011;44775;51.564;5.460;2024-01-16T02:28:20;7.53;;;4.50;;
58472;SDS011;44775;51.564;5.460;2024-01-16T02:30:45;9.75;;;4.68;;
58472;SDS011;44775;51.564;5.460;2024-01-16T02:33:11;9.55;;;4.53;;
58472;SDS011;44775;51.564;5.460;2024-01-16T02:35:36;9.70;;;4.50;;
58472;SDS011;44775;51.564;5.460;2024-01-16T02:38:02;12.10;;;4.55;;
58472;SDS011;44775;51.564;5.460;2024-01-16T02:40:27;10.80;;;4.70;;
58472;SDS011;44775;51.564;5.460;2024-01-16T02:42:52;8.85;;;4.30;;
58472;SDS011;44775;51.564;5.460;2024-01-16T02:45:17;10.73;;;4.72;;
58472;SDS011;44775;51.564;5.460;2024-01-16T02:47:43;11.00;;;5.30;;
58472;SDS011;44775;51.564;5.460;2024-01-16T02:50:08;8.23;;;5.30;;
58472;SDS011;44775;51.564;5.460;2024-01-16T02:52:38;7.95;;;5.32;;
58472;SDS011;44775;51.564;5.460;2024-01-16T02:55:03;10.48;;;5.78;;
58472;SDS011;44775;51.564;5.460;2024-01-16T02:57:29;6.47;;;5.35;;
58472;SDS011;44775;51.564;5.460;2024-01-16T02:59:55;7.50;;;5.15;;
58472;SDS011;44775;51.564;5.460;2024-01-16T03:02:21;10.23;;;5.93;;
58472;SDS011;44775;51.564;5.460;2024-01-16T03:04:47;8.98;;;4.85;;
58472;SDS011;44775;51.564;5.460;2024-01-16T03:07:13;7.93;;;5.80;;
58472;SDS011;44775;51.564;5.460;2024-01-16T03:09:38;10.15;;;5.10;;
58472;SDS011;44775;51.564;5.460;2024-01-16T03:12:03;8.88;;;5.22;;
58472;SDS011;44775;51.564;5.460;2024-01-16T03:14:29;7.30;;;4.20;;
58472;SDS011;44775;51.564;5.460;2024-01-16T03:16:59;5.55;;;3.50;;
58472;SDS011;44775;51.564;5.460;2024-01-16T03:19:25;6.05;;;4.03;;
58472;SDS011;44775;51.564;5.460;2024-01-16T03:21:51;7.15;;;4.10;;
58472;SDS011;44775;51.564;5.460;2024-01-16T03:24:17;7.30;;;4.18;;
58472;SDS011;44775;51.564;5.460;2024-01-16T03:26:42;9.68;;;4.53;;
58472;SDS011;44775;51.564;5.460;2024-01-16T03:29:08;6.18;;;3.58;;
58472;SDS011;44775;51.564;5.460;2024-01-16T03:31:33;4.68;;;3.60;;
58472;SDS011;44775;51.564;5.460;2024-01-16T03:33:59;7.68;;;4.18;;
58472;SDS011;44775;51.564;5.460;2024-01-16T03:36:24;9.00;;;4.20;;
58472;SDS011;44775;51.564;5.460;2024-01-16T03:38:49;7.50;;;4.38;;
58472;SDS011;44775;51.564;5.460;2024-01-16T03:41:15;7.20;;;4.45;;
58472;SDS011;44775;51.564;5.460;2024-01-16T03:43:40;7.43;;;4.72;;
58472;SDS011;44775;51.564;5.460;2024-01-16T03:46:05;9.32;;;5.10;;
58472;SDS011;44775;51.564;5.460;2024-01-16T03:48:31;11.73;;;5.25;;
58472;SDS011;44775;51.564;5.460;2024-01-16T03:50:57;10.02;;;4.97;;
58472;SDS011;44775;51.564;5.460;2024-01-16T03:53:22;13.05;;;6.20;;
58472;SDS011;44775;51.564;5.460;2024-01-16T03:55:48;13.60;;;6.47;;
58472;SDS011;44775;51.564;5.460;2024-01-16T03:58:14;12.48;;;6.82;;
58472;SDS011;44775;51.564;5.460;2024-01-16T04:00:40;12.55;;;7.50;;
58472;SDS011;44775;51.564;5.460;2024-01-16T04:03:06;15.90;;;7.65;;
58472;SDS011;44775;51.564;5.460;2024-01-16T04:05:32;14.63;;;8.13;;
58472;SDS011;44775;51.564;5.460;2024-01-16T04:07:57;15.23;;;9.30;;
58472;SDS011;44775;51.564;5.460;2024-01-16T04:10:23;16.92;;;9.43;;
58472;SDS011;44775;51.564;5.460;2024-01-16T04:12:48;17.13;;;11.63;;
58472;SDS011;44775;51.564;5.460;2024-01-16T04:15:14;20.00;;;12.18;;
58472;SDS011;44775;51.564;5.460;2024-01-16T04:17:39;20.08;;;12.70;;
58472;SDS011;44775;51.564;5.460;2024-01-16T04:20:05;18.58;;;13.50;;
58472;SDS011;44775;51.564;5.460;2024-01-16T04:22:32;24.38;;;14.55;;
58472;SDS011;44775;51.564;5.460;2024-01-16T04:24:57;22.20;;;15.70;;
58472;SDS011;44775;51.564;5.460;2024-01-16T04:27:23;25.77;;;16.52;;
58472;SDS011;44775;51.564;5.460;2024-01-16T04:29:48;26.48;;;16.77;;
58472;SDS011;44775;51.564;5.460;2024-01-16T04:32:14;25.85;;;17.20;;
58472;SDS011;44775;51.564;5.460;2024-01-16T04:34:39;24.73;;;17.58;;
58472;SDS011;44775;51.564;5.460;2024-01-16T04:37:04;25.58;;;17.25;;
58472;SDS011;44775;51.564;5.460;2024-01-16T04:39:30;25.27;;;18.48;;
58472;SDS011;44775;51.564;5.460;2024-01-16T04:41:55;28.13;;;18.15;;
58472;SDS011;44775;51.564;5.460;2024-01-16T04:44:20;26.00;;;18.52;;
58472;SDS011;44775;51.564;5.460;2024-01-16T04:46:45;25.90;;;17.95;;
58472;SDS011;44775;51.564;5.460;2024-01-16T04:49:11;22.50;;;17.63;;
58472;SDS011;44775;51.564;5.460;2024-01-16T04:51:36;28.30;;;18.70;;
58472;SDS011;44775;51.564;5.460;2024-01-16T04:54:01;29.92;;;19.52;;
58472;SDS011;44775;51.564;5.460;2024-01-16T04:56:27;27.95;;;18.88;;
58472;SDS011;44775;51.564;5.460;2024-01-16T04:58:52;26.48;;;20.48;;
58472;SDS011;44775;51.564;5.460;2024-01-16T05:01:17;27.45;;;19.08;;
58472;SDS011;44775;51.564;5.460;2024-01-16T05:03:43;29.27;;;18.60;;
58472;SDS011;44775;51.564;5.460;2024-01-16T05:06:15;28.30;;;19.25;;
58472;SDS011;44775;51.564;5.460;2024-01-16T05:08:41;29.15;;;19.70;;
58472;SDS011;44775;51.564;5.460;2024-01-16T05:11:07;27.98;;;18.50;;
58472;SDS011;44775;51.564;5.460;2024-01-16T05:13:32;28.63;;;18.52;;
58472;SDS011;44775;51.564;5.460;2024-01-16T05:15:57;30.75;;;19.27;;
58472;SDS011;44775;51.564;5.460;2024-01-16T05:18:23;31.05;;;19.75;;
58472;SDS011;44775;51.564;5.460;2024-01-16T05:20:48;22.20;;;18.92;;
58472;SDS011;44775;51.564;5.460;2024-01-16T05:23:13;29.63;;;19.60;;
58472;SDS011;44775;51.564;5.460;2024-01-16T05:25:38;29.35;;;19.50;;
58472;SDS011;44775;51.564;5.460;2024-01-16T05:28:04;29.10;;;19.73;;
58472;SDS011;44775;51.564;5.460;2024-01-16T05:30:29;28.70;;;19.15;;
58472;SDS011;44775;51.564;5.460;2024-01-16T05:32:55;30.33;;;18.55;;
58472;SDS011;44775;51.564;5.460;2024-01-16T05:35:21;27.30;;;18.38;;
58472;SDS011;44775;51.564;5.460;2024-01-16T05:37:46;26.00;;;18.90;;
58472;SDS011;44775;51.564;5.460;2024-01-16T05:40:12;28.67;;;18.15;;
58472;SDS011;44775;51.564;5.460;2024-01-16T05:42:38;29.50;;;17.83;;
58472;SDS011;44775;51.564;5.460;2024-01-16T05:45:03;28.92;;;17.65;;
58472;SDS011;44775;51.564;5.460;2024-01-16T05:47:29;24.98;;;16.88;;
58472;SDS011;44775;51.564;5.460;2024-01-16T05:49:55;26.20;;;16.42;;
58472;SDS011;44775;51.564;5.460;2024-01-16T05:52:21;26.33;;;16.77;;
58472;SDS011;44775;51.564;5.460;2024-01-16T05:54:47;22.77;;;16.23;;
58472;SDS011;44775;51.564;5.460;2024-01-16T05:57:12;23.30;;;15.13;;
58472;SDS011;44775;51.564;5.460;2024-01-16T05:59:37;24.52;;;14.85;;
58472;SDS011;44775;51.564;5.460;2024-01-16T06:02:03;23.98;;;14.25;;
58472;SDS011;44775;51.564;5.460;2024-01-16T06:04:31;23.45;;;13.80;;
58472;SDS011;44775;51.564;5.460;2024-01-16T06:06:56;23.23;;;14.55;;
58472;SDS011;44775;51.564;5.460;2024-01-16T06:09:21;23.92;;;14.00;;
58472;SDS011;44775;51.564;5.460;2024-01-16T06:11:46;21.42;;;13.43;;
58472;SDS011;44775;51.564;5.460;2024-01-16T06:14:13;20.92;;;14.18;;
58472;SDS011;44775;51.564;5.460;2024-01-16T06:16:38;27.55;;;14.32;;
58472;SDS011;44775;51.564;5.460;2024-01-16T06:19:03;21.65;;;13.07;;
58472;SDS011;44775;51.564;5.460;2024-01-16T06:21:29;23.02;;;13.73;;
58472;SDS011;44775;51.564;5.460;2024-01-16T06:23:55;22.58;;;13.82;;
58472;SDS011;44775;51.564;5.460;2024-01-16T06:26:20;20.90;;;13.27;;
58472;SDS011;44775;51.564;5.460;2024-01-16T06:28:46;22.02;;;13.00;;
58472;SDS011;44775;51.564;5.460;2024-01-16T06:31:11;22.60;;;12.95;;
58472;SDS011;44775;51.564;5.460;2024-01-16T06:33:37;22.17;;;12.50;;
58472;SDS011;44775;51.564;5.460;2024-01-16T06:36:03;20.77;;;12.70;;
58472;SDS011;44775;51.564;5.460;2024-01-16T06:38:31;23.13;;;13.02;;
58472;SDS011;44775;51.564;5.460;2024-01-16T06:40:57;20.08;;;12.98;;
58472;SDS011;44775;51.564;5.460;2024-01-16T06:43:23;20.50;;;12.70;;
58472;SDS011;44775;51.564;5.460;2024-01-16T06:45:48;24.13;;;12.52;;
58472;SDS011;44775;51.564;5.460;2024-01-16T06:48:14;18.98;;;12.02;;
58472;SDS011;44775;51.564;5.460;2024-01-16T06:50:39;19.85;;;12.05;;
58472;SDS011;44775;51.564;5.460;2024-01-16T06:53:04;15.77;;;11.32;;
58472;SDS011;44775;51.564;5.460;2024-01-16T06:55:29;21.88;;;12.68;;
58472;SDS011;44775;51.564;5.460;2024-01-16T06:57:55;20.42;;;11.63;;
58472;SDS011;44775;51.564;5.460;2024-01-16T07:00:20;20.30;;;11.32;;
58472;SDS011;44775;51.564;5.460;2024-01-16T07:02:47;20.75;;;11.35;;
58472;SDS011;44775;51.564;5.460;2024-01-16T07:05:13;15.68;;;11.05;;
58472;SDS011;44775;51.564;5.460;2024-01-16T07:07:38;17.52;;;10.50;;
58472;SDS011;44775;51.564;5.460;2024-01-16T07:10:04;15.25;;;10.40;;
58472;SDS011;44775;51.564;5.460;2024-01-16T07:12:33;17.90;;;10.50;;
58472;SDS011;44775;51.564;5.460;2024-01-16T07:14:58;17.75;;;10.05;;
58472;SDS011;44775;51.564;5.460;2024-01-16T07:17:24;15.85;;;10.43;;
58472;SDS011;44775;51.564;5.460;2024-01-16T07:19:49;16.50;;;11.05;;
58472;SDS011;44775;51.564;5.460;2024-01-16T07:22:14;15.88;;;9.90;;
58472;SDS011;44775;51.564;5.460;2024-01-16T07:24:40;18.05;;;10.30;;
58472;SDS011;44775;51.564;5.460;2024-01-16T07:27:06;16.38;;;9.50;;
58472;SDS011;44775;51.564;5.460;2024-01-16T07:29:31;13.65;;;9.70;;
58472;SDS011;44775;51.564;5.460;2024-01-16T07:31:56;16.33;;;9.65;;
58472;SDS011;44775;51.564;5.460;2024-01-16T07:34:22;15.98;;;9.95;;
58472;SDS011;44775;51.564;5.460;2024-01-16T07:36:47;16.48;;;10.68;;
58472;SDS011;44775;51.564;5.460;2024-01-16T07:39:13;16.65;;;10.70;;
58472;SDS011;44775;51.564;5.460;2024-01-16T07:41:39;15.15;;;11.73;;
58472;SDS011;44775;51.564;5.460;2024-01-16T07:44:04;15.75;;;10.98;;
58472;SDS011;44775;51.564;5.460;2024-01-16T07:46:30;17.17;;;11.60;;
58472;SDS011;44775;51.564;5.460;2024-01-16T07:48:55;16.98;;;11.20;;
58472;SDS011;44775;51.564;5.460;2024-01-16T07:51:20;14.63;;;9.60;;
58472;SDS011;44775;51.564;5.460;2024-01-16T07:53:46;17.95;;;10.35;;
58472;SDS011;44775;51.564;5.460;2024-01-16T07:56:11;14.88;;;9.82;;
58472;SDS011;44775;51.564;5.460;2024-01-16T07:58:37;14.65;;;9.82;;
58472;SDS011;44775;51.564;5.460;2024-01-16T08:01:02;20.23;;;11.38;;
58472;SDS011;44775;51.564;5.460;2024-01-16T08:03:28;17.63;;;11.23;;
58472;SDS011;44775;51.564;5.460;2024-01-16T08:05:53;16.98;;;10.40;;
58472;SDS011;44775;51.564;5.460;2024-01-16T08:08:19;14.88;;;9.95;;
58472;SDS011;44775;51.564;5.460;2024-01-16T08:10:44;15.00;;;10.32;;
58472;SDS011;44775;51.564;5.460;2024-01-16T08:13:09;16.75;;;10.15;;
58472;SDS011;44775;51.564;5.460;2024-01-16T08:15:35;14.95;;;10.27;;
58472;SDS011;44775;51.564;5.460;2024-01-16T08:18:00;15.93;;;10.70;;
58472;SDS011;44775;51.564;5.460;2024-01-16T08:20:25;15.98;;;10.25;;
58472;SDS011;44775;51.564;5.460;2024-01-16T08:22:51;14.60;;;9.85;;
58472;SDS011;44775;51.564;5.460;2024-01-16T08:25:17;15.95;;;9.38;;
58472;SDS011;44775;51.564;5.460;2024-01-16T08:27:42;16.85;;;9.48;;
58472;SDS011;44775;51.564;5.460;2024-01-16T08:30:08;17.73;;;9.60;;
58472;SDS011;44775;51.564;5.460;2024-01-16T08:32:36;15.25;;;9.38;;
58472;SDS011;44775;51.564;5.460;2024-01-16T08:35:01;22.90;;;9.80;;
58472;SDS011;44775;51.564;5.460;2024-01-16T08:37:27;11.95;;;9.00;;
58472;SDS011;44775;51.564;5.460;2024-01-16T08:39:52;16.20;;;9.90;;
58472;SDS011;44775;51.564;5.460;2024-01-16T08:42:17;15.30;;;9.20;;
58472;SDS011;44775;51.564;5.460;2024-01-16T08:44:43;12.05;;;9.10;;
58472;SDS011;44775;51.564;5.460;2024-01-16T08:47:08;15.57;;;9.52;;
58472;SDS011;44775;51.564;5.460;2024-01-16T08:49:34;14.88;;;9.65;;
58472;SDS011;44775;51.564;5.460;2024-01-16T08:52:00;15.55;;;9.73;;
58472;SDS011;44775;51.564;5.460;2024-01-16T08:54:27;13.73;;;9.60;;
58472;SDS011;44775;51.564;5.460;2024-01-16T08:56:52;15.50;;;9.68;;
58472;SDS011;44775;51.564;5.460;2024-01-16T08:59:18;13.27;;;9.77;;
58472;SDS011;44775;51.564;5.460;2024-01-16T09:01:43;14.38;;;10.13;;
58472;SDS011;44775;51.564;5.460;2024-01-16T09:04:08;16.85;;;10.60;;
58472;SDS011;44775;51.564;5.460;2024-01-16T09:06:34;15.13;;;10.15;;
58472;SDS011;44775;51.564;5.460;2024-01-16T09:08:59;13.32;;;9.27;;
58472;SDS011;44775;51.564;5.460;2024-01-16T09:11:24;13.00;;;8.77;;
58472;SDS011;44775;51.564;5.460;2024-01-16T09:13:51;15.57;;;9.05;;
58472;SDS011;44775;51.564;5.460;2024-01-16T09:16:16;13.68;;;8.80;;
58472;SDS011;44775;51.564;5.460;2024-01-16T09:18:42;13.35;;;8.32;;
58472;SDS011;44775;51.564;5.460;2024-01-16T09:21:07;15.52;;;8.35;;
58472;SDS011;44775;51.564;5.460;2024-01-16T09:23:32;15.70;;;8.80;;
58472;SDS011;44775;51.564;5.460;2024-01-16T09:25:58;11.90;;;8.20;;
58472;SDS011;44775;51.564;5.460;2024-01-16T09:28:23;14.82;;;8.68;;
58472;SDS011;44775;51.564;5.460;2024-01-16T09:30:49;13.77;;;8.63;;
58472;SDS011;44775;51.564;5.460;2024-01-16T09:33:14;13.45;;;8.20;;
58472;SDS011;44775;51.564;5.460;2024-01-16T09:35:41;14.80;;;8.40;;
58472;SDS011;44775;51.564;5.460;2024-01-16T09:38:07;14.60;;;9.05;;
58472;SDS011;44775;51.564;5.460;2024-01-16T09:40:33;12.60;;;8.73;;
58472;SDS011;44775;51.564;5.460;2024-01-16T09:43:00;13.57;;;8.82;;
58472;SDS011;44775;51.564;5.460;2024-01-16T09:45:26;12.88;;;8.55;;
58472;SDS011;44775;51.564;5.460;2024-01-16T09:47:54;13.63;;;8.43;;
58472;SDS011;44775;51.564;5.460;2024-01-16T09:50:19;15.15;;;8.70;;
58472;SDS011;44775;51.564;5.460;2024-01-16T09:52:45;12.80;;;8.38;;
58472;SDS011;44775;51.564;5.460;2024-01-16T09:55:12;14.25;;;8.30;;
58472;SDS011;44775;51.564;5.460;2024-01-16T09:57:39;10.25;;;8.18;;
58472;SDS011;44775;51.564;5.460;2024-01-16T10:00:06;12.00;;;8.98;;
58472;SDS011;44775;51.564;5.460;2024-01-16T10:02:41;15.43;;;9.40;;
58472;SDS011;44775;51.564;5.460;2024-01-16T10:05:10;13.05;;;8.70;;
58472;SDS011;44775;51.564;5.460;2024-01-16T10:07:40;13.50;;;8.68;;
58472;SDS011;44775;51.564;5.460;2024-01-16T10:10:08;13.75;;;9.13;;
58472;SDS011;44775;51.564;5.460;2024-01-16T10:12:36;13.18;;;9.07;;
58472;SDS011;44775;51.564;5.460;2024-01-16T10:15:02;15.85;;;9.02;;
58472;SDS011;44775;51.564;5.460;2024-01-16T10:17:39;12.80;;;8.65;;
58472;SDS011;44775;51.564;5.460;2024-01-16T10:20:06;12.88;;;8.60;;
58472;SDS011;44775;51.564;5.460;2024-01-16T10:22:32;11.80;;;8.52;;
58472;SDS011;44775;51.564;5.460;2024-01-16T10:25:07;12.50;;;8.32;;
58472;SDS011;44775;51.564;5.460;2024-01-16T10:27:34;14.23;;;8.77;;
58472;SDS011;44775;51.564;5.460;2024-01-16T10:30:01;14.07;;;8.90;;
58472;SDS011;44775;51.564;5.460;2024-01-16T10:32:29;13.10;;;8.38;;
58472;SDS011;44775;51.564;5.460;2024-01-16T10:35:02;13.43;;;8.75;;
58472;SDS011;44775;51.564;5.460;2024-01-16T10:40:15;12.35;;;8.65;;
58472;SDS011;44775;51.564;5.460;2024-01-16T10:42:56;11.02;;;8.15;;
58472;SDS011;44775;51.564;5.460;2024-01-16T10:45:25;12.00;;;8.18;;
58472;SDS011;44775;51.564;5.460;2024-01-16T10:48:03;14.48;;;8.48;;
58472;SDS011;44775;51.564;5.460;2024-01-16T10:50:33;22.35;;;9.13;;
58472;SDS011;44775;51.564;5.460;2024-01-16T10:52:59;12.82;;;8.70;;
58472;SDS011;44775;51.564;5.460;2024-01-16T10:57:54;13.95;;;8.80;;
58472;SDS011;44775;51.564;5.460;2024-01-16T11:00:21;11.60;;;8.65;;
58472;SDS011;44775;51.564;5.460;2024-01-16T11:05:37;13.93;;;8.50;;
58472;SDS011;44775;51.564;5.460;2024-01-16T11:08:04;14.98;;;8.90;;
58472;SDS011;44775;51.564;5.460;2024-01-16T11:10:31;14.70;;;8.25;;
58472;SDS011;44775;51.564;5.460;2024-01-16T11:13:00;15.30;;;8.43;;
58472;SDS011;44775;51.564;5.460;2024-01-16T11:15:27;16.60;;;8.80;;
58472;SDS011;44775;51.564;5.460;2024-01-16T11:17:54;13.23;;;7.57;;
58472;SDS011;44775;51.564;5.460;2024-01-16T11:20:20;13.38;;;7.40;;
58472;SDS011;44775;51.564;5.460;2024-01-16T11:22:46;11.75;;;7.88;;
58472;SDS011;44775;51.564;5.460;2024-01-16T11:25:13;11.75;;;7.38;;
58472;SDS011;44775;51.564;5.460;2024-01-16T11:27:41;13.10;;;7.05;;
58472;SDS011;44775;51.564;5.460;2024-01-16T11:30:07;13.68;;;7.68;;
58472;SDS011;44775;51.564;5.460;2024-01-16T11:32:34;14.30;;;7.47;;
58472;SDS011;44775;51.564;5.460;2024-01-16T11:35:05;12.38;;;6.88;;
58472;SDS011;44775;51.564;5.460;2024-01-16T11:37:32;10.38;;;7.07;;
58472;SDS011;44775;51.564;5.460;2024-01-16T11:42:42;9.02;;;6.50;;
58472;SDS011;44775;51.564;5.460;2024-01-16T11:45:08;12.60;;;6.65;;
58472;SDS011;44775;51.564;5.460;2024-01-16T11:48:29;8.45;;;6.25;;
58472;SDS011;44775;51.564;5.460;2024-01-16T11:50:48;12.20;;;7.15;;
58472;SDS011;44775;51.564;5.460;2024-01-16T11:53:32;11.68;;;6.50;;
58472;SDS011;44775;51.564;5.460;2024-01-16T12:01:43;11.65;;;6.93;;
58472;SDS011;44775;51.564;5.460;2024-01-16T12:04:10;12.40;;;6.35;;
58472;SDS011;44775;51.564;5.460;2024-01-16T12:06:36;9.60;;;5.88;;
58472;SDS011;44775;51.564;5.460;2024-01-16T12:09:11;13.40;;;6.32;;
58472;SDS011;44775;51.564;5.460;2024-01-16T12:11:38;9.38;;;5.55;;
58472;SDS011;44775;51.564;5.460;2024-01-16T12:14:03;10.68;;;6.65;;
58472;SDS011;44775;51.564;5.460;2024-01-16T12:16:28;12.50;;;6.50;;
58472;SDS011;44775;51.564;5.460;2024-01-16T12:19:04;9.70;;;4.78;;
58472;SDS011;44775;51.564;5.460;2024-01-16T12:21:30;10.48;;;6.45;;
58472;SDS011;44775;51.564;5.460;2024-01-16T12:23:59;9.60;;;5.78;;
58472;SDS011;44775;51.564;5.460;2024-01-16T12:26:24;8.10;;;5.97;;
58472;SDS011;44775;51.564;5.460;2024-01-16T12:28:50;11.52;;;5.90;;
58472;SDS011;44775;51.564;5.460;2024-01-16T12:31:18;10.25;;;6.00;;
58472;SDS011;44775;51.564;5.460;2024-01-16T12:33:43;10.55;;;6.18;;
58472;SDS011;44775;51.564;5.460;2024-01-16T12:36:08;14.73;;;8.43;;
58472;SDS011;44775;51.564;5.460;2024-01-16T12:38:35;10.52;;;6.57;;
58472;SDS011;44775;51.564;5.460;2024-01-16T12:41:01;11.10;;;6.63;;
58472;SDS011;44775;51.564;5.460;2024-01-16T12:43:31;11.30;;;7.25;;
58472;SDS011;44775;51.564;5.460;2024-01-16T12:45:57;13.18;;;7.70;;
58472;SDS011;44775;51.564;5.460;2024-01-16T12:48:24;13.45;;;7.97;;
58472;SDS011;44775;51.564;5.460;2024-01-16T12:50:50;17.70;;;8.05;;
58472;SDS011;44775;51.564;5.460;2024-01-16T12:53:16;13.18;;;7.53;;
58472;SDS011;44775;51.564;5.460;2024-01-16T12:55:44;12.70;;;6.85;;
58472;SDS011;44775;51.564;5.460;2024-01-16T12:58:20;11.40;;;5.65;;
58472;SDS011;44775;51.564;5.460;2024-01-16T13:00:49;9.20;;;5.35;;
58472;SDS011;44775;51.564;5.460;2024-01-16T13:03:19;9.82;;;5.78;;
58472;SDS011;44775;51.564;5.460;2024-01-16T13:05:47;9.20;;;5.60;;
58472;SDS011;44775;51.564;5.460;2024-01-16T13:08:20;7.88;;;5.05;;
58472;SDS011;44775;51.564;5.460;2024-01-16T13:10:51;10.20;;;5.50;;
58472;SDS011;44775;51.564;5.460;2024-01-16T13:13:28;9.52;;;5.00;;
58472;SDS011;44775;51.564;5.460;2024-01-16T13:15:53;8.55;;;5.60;;
58472;SDS011;44775;51.564;5.460;2024-01-16T13:18:19;9.68;;;6.32;;
58472;SDS011;44775;51.564;5.460;2024-01-16T13:20:50;8.82;;;5.55;;
58472;SDS011;44775;51.564;5.460;2024-01-16T13:23:19;8.23;;;5.32;;
58472;SDS011;44775;51.564;5.460;2024-01-16T13:25:47;10.30;;;5.78;;
58472;SDS011;44775;51.564;5.460;2024-01-16T13:28:14;10.02;;;5.45;;
58472;SDS011;44775;51.564;5.460;2024-01-16T13:30:40;10.45;;;5.63;;
58472;SDS011;44775;51.564;5.460;2024-01-16T13:33:06;9.32;;;5.65;;
58472;SDS011;44775;51.564;5.460;2024-01-16T13:35:33;11.43;;;5.78;;
58472;SDS011;44775;51.564;5.460;2024-01-16T13:40:26;13.30;;;6.70;;
58472;SDS011;44775;51.564;5.460;2024-01-16T13:42:51;12.40;;;5.78;;
58472;SDS011;44775;51.564;5.460;2024-01-16T13:45:17;11.02;;;5.90;;
58472;SDS011;44775;51.564;5.460;2024-01-16T13:47:43;10.85;;;6.10;;
58472;SDS011;44775;51.564;5.460;2024-01-16T13:50:09;8.43;;;4.93;;
58472;SDS011;44775;51.564;5.460;2024-01-16T13:52:35;8.25;;;5.40;;
58472;SDS011;44775;51.564;5.460;2024-01-16T13:55:01;9.13;;;5.50;;
58472;SDS011;44775;51.564;5.460;2024-01-16T13:57:30;8.95;;;6.00;;
58472;SDS011;44775;51.564;5.460;2024-01-16T13:59:56;9.10;;;5.40;;
58472;SDS011;44775;51.564;5.460;2024-01-16T14:02:21;10.38;;;5.95;;
58472;SDS011;44775;51.564;5.460;2024-01-16T14:04:47;10.20;;;5.95;;
58472;SDS011;44775;51.564;5.460;2024-01-16T14:07:12;10.35;;;6.00;;
58472;SDS011;44775;51.564;5.460;2024-01-16T14:09:37;12.90;;;6.45;;
58472;SDS011;44775;51.564;5.460;2024-01-16T14:12:03;10.55;;;5.75;;
58472;SDS011;44775;51.564;5.460;2024-01-16T14:14:28;11.13;;;5.78;;
58472;SDS011;44775;51.564;5.460;2024-01-16T14:16:55;12.23;;;7.18;;
58472;SDS011;44775;51.564;5.460;2024-01-16T14:19:22;14.05;;;7.30;;
58472;SDS011;44775;51.564;5.460;2024-01-16T14:21:47;14.88;;;7.45;;
58472;SDS011;44775;51.564;5.460;2024-01-16T14:24:13;13.27;;;8.02;;
58472;SDS011;44775;51.564;5.460;2024-01-16T14:26:38;13.48;;;8.50;;
58472;SDS011;44775;51.564;5.460;2024-01-16T14:29:09;12.57;;;8.65;;
58472;SDS011;44775;51.564;5.460;2024-01-16T14:31:34;14.05;;;7.97;;
58472;SDS011;44775;51.564;5.460;2024-01-16T14:34:00;13.00;;;8.38;;
58472;SDS011;44775;51.564;5.460;2024-01-16T14:36:25;11.95;;;7.97;;
58472;SDS011;44775;51.564;5.460;2024-01-16T14:38:50;14.32;;;8.70;;
58472;SDS011;44775;51.564;5.460;2024-01-16T14:41:16;14.90;;;8.55;;
58472;SDS011;44775;51.564;5.460;2024-01-16T14:43:41;14.52;;;8.70;;
58472;SDS011;44775;51.564;5.460;2024-01-16T14:46:07;13.57;;;8.70;;
58472;SDS011;44775;51.564;5.460;2024-01-16T14:48:35;14.45;;;8.35;;